Terminal Aerodrome Forecast
Issued by NWS

Home | Current Version | Previous Version | Text Only | Print | Product List | Glossary On
Versions: 1 2 3 4 5 6 7 8 9 10 11 12 13
000
FTUS46 KSTO 261130
TAFMHR
TAF
KMHR 261130Z 2612/2712 13007KT P6SM SCT050 BKN120
     FM270000 18008KT P6SM -SHRA SCT030 OVC060
      TEMPO 2702/2706 BKN025
      AMD NOT SKED=

USA.gov is the U.S. government's official web portal to all federal, state and local government web resources and services.